Terminal Aerodrome Forecast
Issued by NWS

Home | Current Version | Previous Version | Text Only | Print | Product List | Glossary On
Versions: 1 2 3 4 5 6 7 8 9 10 11 12 13 14 15 16 17 18
000
FTUS45 KTWC 231734
TAFOLS
TAF
KOLS 231734Z 2318/2418 22006KT P6SM FEW100
     FM232200 29010KT P6SM VCSH SCT080 SCT120
     FM240100 20008KT P6SM SCT080 BKN120
     FM240600 VRB04KT P6SM FEW100 SCT150=

USA.gov is the U.S. government's official web portal to all federal, state and local government web resources and services.